Time;durP1;ratioP1;P1;durP2;ratioP2;P2;SDS_P1;SDS_P2;PMS_P1;PMS_P2;Temp;Humidity;BMP_temperature;BMP_pressure;BME280_temperature;BME280_humidity;BME280_pressure;Samples;Min_cycle;Max_cycle;Signal;HPM_P1;HPM_P2
2023/01/19 00:00:29;0.00;0.00;0.62;0.00;0.00;0.62;1.67;1.07;;;21.80;23.60;;;;;;2259743;61;20361;-64
2023/01/19 00:03:14;0.00;0.00;0.62;0.00;0.00;0.62;1.70;1.20;;;21.90;23.70;;;;;;2259396;61;20393;-64
2023/01/19 00:06:04;0.00;0.00;0.62;0.00;0.00;0.62;1.97;1.10;;;21.80;24.10;;;;;;2259973;61;20368;-64
2023/01/19 00:08:50;0.00;0.00;0.62;0.00;0.00;0.62;1.80;0.97;;;21.80;23.60;;;;;;2259773;61;20365;-64
2023/01/19 00:11:35;0.00;0.00;0.62;0.00;0.00;0.62;1.90;1.20;;;21.80;23.60;;;;;;2259095;61;20413;-64
2023/01/19 00:14:20;0.00;0.00;0.62;0.00;0.00;0.62;1.77;1.10;;;21.80;23.50;;;;;;2259412;61;20436;-63
2023/01/19 00:17:04;0.00;0.00;0.62;0.00;0.00;0.62;1.90;1.00;;;21.80;23.50;;;;;;2260368;61;20455;-64
2023/01/19 00:19:49;0.00;0.00;0.62;0.00;0.00;0.62;1.83;1.20;;;21.80;23.50;;;;;;2260483;61;20907;-64
2023/01/19 00:22:34;0.00;0.00;0.62;0.00;0.00;0.62;2.10;1.23;;;21.80;23.50;;;;;;2258988;61;20770;-64
2023/01/19 00:25:19;0.00;0.00;0.62;0.00;0.00;0.62;1.87;1.20;;;21.80;23.50;;;;;;2259748;61;20388;-65
2023/01/19 00:28:04;0.00;0.00;0.62;0.00;0.00;0.62;1.90;1.40;;;21.80;23.50;;;;;;2260744;61;20443;-64
2023/01/19 00:30:50;0.00;0.00;0.62;0.00;0.00;0.62;2.27;1.20;;;21.80;23.50;;;;;;2260485;61;20420;-67
2023/01/19 00:33:36;0.00;0.00;0.62;0.00;0.00;0.62;1.70;1.17;;;21.80;23.50;;;;;;2260356;61;20368;-64
2023/01/19 00:36:20;0.00;0.00;0.62;0.00;0.00;0.62;2.13;1.40;;;21.80;23.50;;;;;;2260162;61;20423;-64
2023/01/19 00:39:05;0.00;0.00;0.62;0.00;0.00;0.62;2.70;1.50;;;21.80;23.50;;;;;;2260830;61;20372;-64
2023/01/19 00:44:54;0.00;0.00;0.62;0.00;0.00;0.62;2.27;1.30;;;21.70;23.50;;;;;;2259978;61;20380;-65
2023/01/19 00:47:40;0.00;0.00;0.62;0.00;0.00;0.62;2.00;1.33;;;21.70;24.00;;;;;;2260372;61;20387;-64
2023/01/19 00:50:26;0.00;0.00;0.62;0.00;0.00;0.62;1.60;0.93;;;21.70;23.50;;;;;;2260435;61;20373;-64
2023/01/19 00:53:11;0.00;0.00;0.62;0.00;0.00;0.62;1.60;1.00;;;21.70;23.50;;;;;;2260088;61;20392;-64
2023/01/19 00:55:55;0.00;0.00;0.62;0.00;0.00;0.62;1.90;1.10;;;21.70;23.50;;;;;;2259533;61;20368;-64
2023/01/19 00:58:41;0.00;0.00;0.62;0.00;0.00;0.62;1.60;0.90;;;21.70;23.50;;;;;;2260487;61;20380;-64
2023/01/19 01:01:26;0.00;0.00;0.62;0.00;0.00;0.62;1.40;0.87;;;21.70;23.60;;;;;;2260638;61;20408;-64
2023/01/19 01:04:12;0.00;0.00;0.62;0.00;0.00;0.62;1.53;1.20;;;21.70;24.10;;;;;;2260486;61;20958;-63
2023/01/19 01:06:57;0.00;0.00;0.62;0.00;0.00;0.62;1.50;1.00;;;21.70;23.70;;;;;;2262838;61;20774;-66
2023/01/19 01:09:41;0.00;0.00;0.62;0.00;0.00;0.62;1.50;0.80;;;21.70;23.70;;;;;;2259948;61;20360;-69
2023/01/19 01:12:27;0.00;0.00;0.62;0.00;0.00;0.62;1.50;0.93;;;21.70;23.80;;;;;;2253978;61;20972;-67
2023/01/19 01:15:15;0.00;0.00;0.62;0.00;0.00;0.62;1.87;1.07;;;21.70;23.80;;;;;;2255421;61;20432;-62
2023/01/19 01:18:00;0.00;0.00;0.62;0.00;0.00;0.62;1.70;1.10;;;21.70;23.90;;;;;;2256016;61;20930;-66
2023/01/19 01:20:45;0.00;0.00;0.62;0.00;0.00;0.62;1.40;0.80;;;21.70;23.90;;;;;;2255727;61;20504;-67
2023/01/19 01:23:29;0.00;0.00;0.62;0.00;0.00;0.62;1.87;1.00;;;21.70;24.50;;;;;;2255401;61;20903;-67
2023/01/19 01:26:14;0.00;0.00;0.62;0.00;0.00;0.62;1.40;0.80;;;21.70;24.00;;;;;;2255696;61;20393;-67
2023/01/19 01:28:59;0.00;0.00;0.62;0.00;0.00;0.62;1.57;0.93;;;21.70;24.00;;;;;;2256053;61;20374;-64
2023/01/19 01:31:45;0.00;0.00;0.62;0.00;0.00;0.62;1.57;1.00;;;21.70;24.00;;;;;;2255865;61;20393;-68
2023/01/19 01:34:29;0.00;0.00;0.62;0.00;0.00;0.62;2.23;1.00;;;21.70;24.00;;;;;;2255623;61;20459;-63
2023/01/19 01:37:14;0.00;0.00;0.62;0.00;0.00;0.62;1.60;1.03;;;21.70;24.10;;;;;;2255643;61;20357;-61
2023/01/19 01:39:59;0.00;0.00;0.62;0.00;0.00;0.62;2.00;1.30;;;21.70;24.10;;;;;;2256077;61;20453;-67
2023/01/19 01:42:44;0.00;0.00;0.62;0.00;0.00;0.62;2.37;1.27;;;21.60;24.00;;;;;;2256044;61;20401;-67
2023/01/19 01:45:32;0.00;0.00;0.62;0.00;0.00;0.62;1.70;0.83;;;21.70;24.10;;;;;;2255447;61;20470;-69
2023/01/19 01:48:25;0.00;0.00;0.62;0.00;0.00;0.62;1.97;1.00;;;21.70;24.60;;;;;;2258045;61;20448;-62
2023/01/19 01:51:25;0.00;0.00;0.62;0.00;0.00;0.62;1.50;1.00;;;21.70;24.10;;;;;;2256092;61;20366;-62
2023/01/19 01:54:16;0.00;0.00;0.62;0.00;0.00;0.62;1.77;1.10;;;21.70;24.10;;;;;;2255745;61;21061;-62
2023/01/19 01:57:11;0.00;0.00;0.62;0.00;0.00;0.62;1.80;1.20;;;21.70;24.10;;;;;;2255606;61;20362;-56
2023/01/19 01:59:57;0.00;0.00;0.62;0.00;0.00;0.62;1.50;1.00;;;21.70;24.20;;;;;;2257398;61;20409;-62
2023/01/19 02:02:53;0.00;0.00;0.62;0.00;0.00;0.62;1.90;1.30;;;21.60;24.20;;;;;;2255822;61;20501;-61
2023/01/19 02:05:40;0.00;0.00;0.62;0.00;0.00;0.62;1.73;1.13;;;21.70;24.30;;;;;;2255782;61;20385;-64
2023/01/19 02:14:39;0.00;0.00;0.62;0.00;0.00;0.62;1.57;1.00;;;21.60;24.00;;;;;;2255195;61;20947;-57
2023/01/19 02:17:24;0.00;0.00;0.62;0.00;0.00;0.62;1.70;1.07;;;21.60;23.90;;;;;;2258569;61;20417;-60
2023/01/19 02:20:10;0.00;0.00;0.62;0.00;0.00;0.62;1.40;1.00;;;21.60;24.00;;;;;;2256371;61;20361;-64
2023/01/19 02:23:02;0.00;0.00;0.62;0.00;0.00;0.62;1.77;1.17;;;21.60;24.10;;;;;;2255784;61;20428;-64
2023/01/19 02:25:48;0.00;0.00;0.62;0.00;0.00;0.62;1.50;1.00;;;21.60;24.20;;;;;;2255847;61;20378;-66
2023/01/19 02:28:33;0.00;0.00;0.62;0.00;0.00;0.62;1.80;0.90;;;21.60;24.30;;;;;;2255602;61;20374;-66
2023/01/19 02:31:18;0.00;0.00;0.62;0.00;0.00;0.62;1.80;1.00;;;21.60;24.20;;;;;;2256103;61;20464;-66
2023/01/19 02:34:05;0.00;0.00;0.62;0.00;0.00;0.62;1.77;0.83;;;21.60;24.10;;;;;;2255884;61;20798;-67
2023/01/19 02:36:54;0.00;0.00;0.62;0.00;0.00;0.62;1.90;1.30;;;21.60;24.10;;;;;;2255536;61;21076;-67
2023/01/19 02:39:44;0.00;0.00;0.62;0.00;0.00;0.62;1.77;1.00;;;21.60;24.10;;;;;;2255988;61;20980;-66
2023/01/19 02:42:34;0.00;0.00;0.62;0.00;0.00;0.62;2.07;1.00;;;21.60;24.50;;;;;;2256267;61;20358;-67
2023/01/19 02:45:21;0.00;0.00;0.62;0.00;0.00;0.62;1.50;0.80;;;21.60;24.00;;;;;;2255730;61;20428;-67
2023/01/19 02:48:06;0.00;0.00;0.62;0.00;0.00;0.62;1.63;0.90;;;21.60;24.00;;;;;;2255851;61;20375;-67
2023/01/19 02:50:53;0.00;0.00;0.62;0.00;0.00;0.62;1.80;0.90;;;21.60;24.00;;;;;;2255565;61;20358;-67
2023/01/19 02:54:11;0.00;0.00;0.62;0.00;0.00;0.62;1.60;1.10;;;21.60;24.00;;;;;;2255239;61;20760;-66
2023/01/19 02:57:30;0.00;0.00;0.62;0.00;0.00;0.62;1.90;1.30;;;21.60;24.00;;;;;;2255466;61;20370;-67
2023/01/19 03:00:32;0.00;0.00;0.62;0.00;0.00;0.62;2.07;1.10;;;21.50;23.90;;;;;;2255396;61;20845;-66
2023/01/19 03:03:29;0.00;0.00;0.62;0.00;0.00;0.62;3.40;1.30;;;21.50;23.90;;;;;;2256027;61;20762;-65
2023/01/19 03:06:24;0.00;0.00;0.62;0.00;0.00;0.62;1.73;0.90;;;21.50;23.90;;;;;;2255470;61;20469;-67
2023/01/19 03:09:19;0.00;0.00;0.62;0.00;0.00;0.62;1.60;0.90;;;21.50;23.90;;;;;;2256138;61;20365;-66
2023/01/19 03:12:12;0.00;0.00;0.62;0.00;0.00;0.62;1.80;0.97;;;21.50;23.90;;;;;;2256011;61;20428;-65
2023/01/19 03:15:06;0.00;0.00;0.62;0.00;0.00;0.62;1.60;1.00;;;21.50;23.90;;;;;;2254977;61;20969;-66
2023/01/19 03:17:54;0.00;0.00;0.62;0.00;0.00;0.62;1.60;1.00;;;21.50;23.90;;;;;;2255806;61;20373;-65
2023/01/19 03:20:40;0.00;0.00;0.62;0.00;0.00;0.62;2.00;1.40;;;21.50;23.90;;;;;;2255427;61;20370;-65
2023/01/19 03:23:30;0.00;0.00;0.62;0.00;0.00;0.62;3.00;2.07;;;21.40;23.70;;;;;;2255287;61;20427;-65
2023/01/19 03:26:21;0.00;0.00;0.62;0.00;0.00;0.62;2.83;1.80;;;21.40;23.50;;;;;;2257474;61;20786;-66
2023/01/19 03:29:10;0.00;0.00;0.62;0.00;0.00;0.62;4.30;2.67;;;21.30;23.10;;;;;;2255977;61;20890;-65
2023/01/19 03:31:58;0.00;0.00;0.62;0.00;0.00;0.62;3.73;2.53;;;21.30;23.00;;;;;;2255287;61;20389;-65
2023/01/19 03:34:48;0.00;0.00;0.62;0.00;0.00;0.62;4.30;2.47;;;21.20;22.70;;;;;;2255070;61;20413;-65
2023/01/19 03:37:36;0.00;0.00;0.62;0.00;0.00;0.62;3.17;2.80;;;21.20;22.70;;;;;;2255835;61;20381;-66
2023/01/19 03:40:22;0.00;0.00;0.62;0.00;0.00;0.62;3.13;2.57;;;21.10;22.60;;;;;;2255712;61;20361;-65
2023/01/19 03:43:08;0.00;0.00;0.62;0.00;0.00;0.62;4.10;2.70;;;21.10;22.30;;;;;;2255522;61;21046;-65
2023/01/19 03:45:54;0.00;0.00;0.62;0.00;0.00;0.62;4.50;2.33;;;21.00;22.20;;;;;;2255338;61;20869;-65
2023/01/19 03:48:40;0.00;0.00;0.62;0.00;0.00;0.62;3.33;2.73;;;20.90;22.00;;;;;;2255078;61;20468;-66
2023/01/19 03:51:26;0.00;0.00;0.62;0.00;0.00;0.62;2.80;2.50;;;20.90;22.00;;;;;;2255530;61;20420;-66
2023/01/19 03:54:11;0.00;0.00;0.62;0.00;0.00;0.62;3.60;2.57;;;20.80;22.00;;;;;;2255424;61;20393;-65
2023/01/19 03:56:56;0.00;0.00;0.62;0.00;0.00;0.62;3.50;2.90;;;20.70;21.90;;;;;;2257867;61;20373;-65
2023/01/19 03:59:41;0.00;0.00;0.62;0.00;0.00;0.62;3.67;2.60;;;20.70;21.80;;;;;;2255104;61;20358;-65
2023/01/19 04:02:25;0.00;0.00;0.62;0.00;0.00;0.62;2.57;2.37;;;20.60;21.80;;;;;;2255806;61;20853;-65
2023/01/19 04:05:10;0.00;0.00;0.62;0.00;0.00;0.62;5.03;2.67;;;20.60;21.80;;;;;;2255328;61;20471;-65
2023/01/19 04:07:56;0.00;0.00;0.62;0.00;0.00;0.62;3.77;3.10;;;20.50;21.90;;;;;;2255650;61;20390;-65
2023/01/19 04:10:41;0.00;0.00;0.62;0.00;0.00;0.62;3.30;2.40;;;20.50;21.80;;;;;;2255518;61;20433;-66
2023/01/19 04:13:28;0.00;0.00;0.62;0.00;0.00;0.62;3.10;2.53;;;20.40;21.90;;;;;;2254909;61;20393;-65
2023/01/19 04:16:18;0.00;0.00;0.62;0.00;0.00;0.62;2.50;2.20;;;20.40;22.10;;;;;;2255302;61;20365;-65
2023/01/19 04:19:03;0.00;0.00;0.62;0.00;0.00;0.62;3.70;3.10;;;20.40;22.10;;;;;;2255813;61;20450;-65
2023/01/19 04:21:49;0.00;0.00;0.62;0.00;0.00;0.62;5.20;2.87;;;20.30;21.90;;;;;;2257776;61;20396;-66
2023/01/19 04:24:35;0.00;0.00;0.62;0.00;0.00;0.62;3.47;2.97;;;20.30;21.80;;;;;;2255586;61;20480;-65
2023/01/19 04:27:20;0.00;0.00;0.62;0.00;0.00;0.62;3.67;3.23;;;20.20;21.80;;;;;;2255366;61;20386;-66
2023/01/19 04:30:07;0.00;0.00;0.62;0.00;0.00;0.62;2.63;2.33;;;20.20;21.80;;;;;;2255613;61;20449;-65
2023/01/19 04:32:54;0.00;0.00;0.62;0.00;0.00;0.62;4.20;3.53;;;20.20;21.70;;;;;;2255770;61;20389;-66
2023/01/19 04:35:39;0.00;0.00;0.62;0.00;0.00;0.62;3.30;2.97;;;20.10;21.70;;;;;;2255099;61;20377;-65
2023/01/19 04:38:24;0.00;0.00;0.62;0.00;0.00;0.62;2.93;2.60;;;20.10;21.60;;;;;;2255331;61;20378;-65
2023/01/19 04:41:10;0.00;0.00;0.62;0.00;0.00;0.62;3.90;2.90;;;20.00;21.50;;;;;;2255415;61;20369;-66
2023/01/19 04:43:55;0.00;0.00;0.62;0.00;0.00;0.62;4.33;2.60;;;20.00;21.60;;;;;;2255226;61;20445;-65
2023/01/19 04:46:40;0.00;0.00;0.62;0.00;0.00;0.62;4.40;3.30;;;19.90;21.50;;;;;;2255327;61;20916;-65
2023/01/19 04:49:25;0.00;0.00;0.62;0.00;0.00;0.62;3.37;2.90;;;19.90;21.50;;;;;;2255205;61;20436;-66
2023/01/19 04:52:10;0.00;0.00;0.62;0.00;0.00;0.62;3.10;2.77;;;19.80;21.40;;;;;;2255491;61;20385;-66
2023/01/19 04:54:55;0.00;0.00;0.62;0.00;0.00;0.62;3.40;2.87;;;19.80;21.50;;;;;;2254789;61;20478;-65
2023/01/19 04:57:41;0.00;0.00;0.62;0.00;0.00;0.62;5.57;3.00;;;19.80;21.50;;;;;;2255210;61;20811;-65
2023/01/19 05:00:26;0.00;0.00;0.62;0.00;0.00;0.62;4.13;2.80;;;19.70;21.40;;;;;;2255758;61;20461;-65
2023/01/19 05:03:10;0.00;0.00;0.62;0.00;0.00;0.62;4.10;2.80;;;19.70;21.50;;;;;;2255595;61;20374;-65
2023/01/19 05:05:56;0.00;0.00;0.62;0.00;0.00;0.62;3.70;3.03;;;19.60;21.40;;;;;;2255266;61;20373;-65
2023/01/19 05:08:40;0.00;0.00;0.62;0.00;0.00;0.62;4.90;3.20;;;19.60;21.30;;;;;;2255693;61;20370;-66
2023/01/19 05:11:25;0.00;0.00;0.62;0.00;0.00;0.62;4.90;3.67;;;19.50;21.30;;;;;;2255416;61;20505;-65
2023/01/19 05:14:11;0.00;0.00;0.62;0.00;0.00;0.62;3.50;2.60;;;19.50;21.30;;;;;;2256093;61;20381;-65
2023/01/19 05:16:56;0.00;0.00;0.62;0.00;0.00;0.62;3.33;3.03;;;19.50;21.30;;;;;;2256350;61;20802;-65
2023/01/19 05:19:41;0.00;0.00;0.62;0.00;0.00;0.62;5.20;3.47;;;19.40;21.30;;;;;;2256116;61;20931;-65
2023/01/19 05:22:26;0.00;0.00;0.62;0.00;0.00;0.62;2.97;2.67;;;19.30;21.30;;;;;;2256050;61;20392;-65
2023/01/19 05:25:11;0.00;0.00;0.62;0.00;0.00;0.62;4.43;3.20;;;19.30;21.30;;;;;;2256199;61;20400;-65
2023/01/19 05:27:55;0.00;0.00;0.62;0.00;0.00;0.62;3.23;2.90;;;19.20;21.30;;;;;;2256324;61;20420;-65
2023/01/19 05:30:41;0.00;0.00;0.62;0.00;0.00;0.62;4.70;3.30;;;19.20;21.30;;;;;;2256158;61;20373;-66
2023/01/19 05:33:26;0.00;0.00;0.62;0.00;0.00;0.62;3.37;2.97;;;19.20;21.30;;;;;;2255905;61;20393;-65
2023/01/19 05:36:11;0.00;0.00;0.62;0.00;0.00;0.62;3.97;2.90;;;19.20;21.30;;;;;;2255834;61;20550;-65
2023/01/19 05:38:56;0.00;0.00;0.62;0.00;0.00;0.62;4.80;3.93;;;19.10;21.20;;;;;;2256101;61;20788;-65
2023/01/19 05:41:42;0.00;0.00;0.62;0.00;0.00;0.62;6.13;3.70;;;19.10;21.30;;;;;;2255942;61;20898;-66
2023/01/19 05:44:27;0.00;0.00;0.62;0.00;0.00;0.62;3.60;3.10;;;19.00;21.20;;;;;;2255646;61;20495;-65
2023/01/19 05:47:13;0.00;0.00;0.62;0.00;0.00;0.62;5.07;4.13;;;19.00;21.30;;;;;;2256119;61;20362;-65
2023/01/19 05:49:57;0.00;0.00;0.62;0.00;0.00;0.62;4.30;3.67;;;18.90;21.30;;;;;;2256204;61;20381;-65
2023/01/19 05:52:42;0.00;0.00;0.62;0.00;0.00;0.62;5.00;3.87;;;18.90;21.30;;;;;;2255940;61;20448;-65
2023/01/19 05:55:27;0.00;0.00;0.62;0.00;0.00;0.62;3.53;3.23;;;18.90;21.30;;;;;;2255557;61;20432;-65
2023/01/19 05:58:12;0.00;0.00;0.62;0.00;0.00;0.62;3.73;3.20;;;18.80;21.30;;;;;;2255673;61;20373;-65
2023/01/19 06:01:01;0.00;0.00;0.62;0.00;0.00;0.62;4.50;2.80;;;18.80;21.30;;;;;;2258444;61;20413;-66
2023/01/19 06:03:48;0.00;0.00;0.62;0.00;0.00;0.62;4.00;3.60;;;18.80;21.30;;;;;;2255772;61;20468;-65
2023/01/19 06:06:32;0.00;0.00;0.62;0.00;0.00;0.62;7.40;3.50;;;18.70;21.30;;;;;;2255864;61;20374;-65
2023/01/19 06:09:17;0.00;0.00;0.62;0.00;0.00;0.62;4.00;3.57;;;18.70;21.30;;;;;;2256282;61;20393;-65
2023/01/19 06:12:01;0.00;0.00;0.62;0.00;0.00;0.62;6.20;3.07;;;18.70;21.40;;;;;;2255565;61;20389;-65
2023/01/19 06:14:46;0.00;0.00;0.62;0.00;0.00;0.62;4.13;3.20;;;18.60;21.40;;;;;;2255663;61;21026;-65
2023/01/19 06:17:31;0.00;0.00;0.62;0.00;0.00;0.62;3.33;2.93;;;18.60;21.40;;;;;;2256174;61;20895;-65
2023/01/19 06:20:18;0.00;0.00;0.62;0.00;0.00;0.62;3.50;3.20;;;18.50;21.30;;;;;;2255850;61;20361;-65
2023/01/19 06:23:03;0.00;0.00;0.62;0.00;0.00;0.62;5.50;3.43;;;18.50;21.30;;;;;;2255678;61;20374;-65
2023/01/19 06:25:49;0.00;0.00;0.62;0.00;0.00;0.62;3.40;3.10;;;18.50;21.30;;;;;;2255755;61;20448;-65
2023/01/19 06:28:34;0.00;0.00;0.62;0.00;0.00;0.62;9.67;3.70;;;18.40;21.30;;;;;;2255826;61;20362;-65
2023/01/19 06:31:19;0.00;0.00;0.62;0.00;0.00;0.62;3.93;3.13;;;18.40;21.30;;;;;;2256410;61;20365;-65
2023/01/19 06:34:03;0.00;0.00;0.62;0.00;0.00;0.62;3.93;3.33;;;18.40;21.30;;;;;;2255551;61;20381;-65
2023/01/19 06:36:50;0.00;0.00;0.62;0.00;0.00;0.62;4.00;3.57;;;18.30;21.20;;;;;;2255736;61;20366;-65
2023/01/19 06:39:36;0.00;0.00;0.62;0.00;0.00;0.62;3.67;2.90;;;18.30;21.20;;;;;;2255887;61;20416;-64
2023/01/19 06:42:21;0.00;0.00;0.62;0.00;0.00;0.62;4.83;3.73;;;18.30;21.20;;;;;;2255817;61;20446;-65
2023/01/19 06:45:08;0.00;0.00;0.62;0.00;0.00;0.62;6.50;2.70;;;18.20;21.20;;;;;;2254806;61;20381;-65
2023/01/19 06:47:53;0.00;0.00;0.62;0.00;0.00;0.62;4.10;3.07;;;18.20;21.20;;;;;;2255940;61;20928;-65
2023/01/19 06:50:38;0.00;0.00;0.62;0.00;0.00;0.62;4.20;3.37;;;18.20;21.30;;;;;;2258006;61;20393;-66
2023/01/19 06:53:26;0.00;0.00;0.62;0.00;0.00;0.62;4.43;3.70;;;18.10;21.20;;;;;;2255645;61;20425;-63
2023/01/19 06:56:11;0.00;0.00;0.62;0.00;0.00;0.62;3.20;2.80;;;18.10;21.20;;;;;;2255597;61;20370;-64
2023/01/19 06:58:56;0.00;0.00;0.62;0.00;0.00;0.62;4.40;4.00;;;18.00;21.20;;;;;;2255697;61;20897;-64
2023/01/19 07:01:41;0.00;0.00;0.62;0.00;0.00;0.62;4.00;3.30;;;18.00;21.20;;;;;;2255491;61;20361;-64
2023/01/19 07:04:26;0.00;0.00;0.62;0.00;0.00;0.62;3.63;2.90;;;18.00;21.30;;;;;;2255508;61;20848;-65
2023/01/19 07:07:10;0.00;0.00;0.62;0.00;0.00;0.62;3.47;2.90;;;18.00;21.30;;;;;;2255741;61;20365;-66
2023/01/19 07:09:56;0.00;0.00;0.62;0.00;0.00;0.62;3.87;3.27;;;18.00;21.30;;;;;;2255195;61;20566;-64
2023/01/19 07:12:42;0.00;0.00;0.62;0.00;0.00;0.62;4.23;3.20;;;17.90;21.30;;;;;;2255693;61;20432;-64
2023/01/19 07:15:27;0.00;0.00;0.62;0.00;0.00;0.62;4.17;2.70;;;17.90;21.40;;;;;;2255538;61;20405;-65
2023/01/19 07:18:12;0.00;0.00;0.62;0.00;0.00;0.62;2.97;2.27;;;17.90;21.40;;;;;;2255676;61;20448;-65
2023/01/19 07:20:57;0.00;0.00;0.62;0.00;0.00;0.62;3.57;3.27;;;17.90;21.40;;;;;;2255866;61;20930;-64
2023/01/19 07:23:42;0.00;0.00;0.62;0.00;0.00;0.62;6.40;3.10;;;17.90;21.40;;;;;;2255656;61;20378;-64
2023/01/19 07:26:28;0.00;0.00;0.62;0.00;0.00;0.62;3.90;2.87;;;17.90;21.50;;;;;;2255642;61;20462;-64
2023/01/19 07:29:14;0.00;0.00;0.62;0.00;0.00;0.62;4.10;2.90;;;17.90;21.50;;;;;;2255622;61;20416;-65
2023/01/19 07:31:59;0.00;0.00;0.62;0.00;0.00;0.62;4.00;2.57;;;17.80;21.40;;;;;;2258281;61;20509;-64
2023/01/19 07:34:44;0.00;0.00;0.62;0.00;0.00;0.62;3.40;3.10;;;17.80;21.50;;;;;;2257779;61;20826;-64
2023/01/19 07:37:31;0.00;0.00;0.62;0.00;0.00;0.62;4.63;2.93;;;17.90;21.60;;;;;;2256041;61;20350;-66
2023/01/19 07:40:17;0.00;0.00;0.62;0.00;0.00;0.62;4.87;3.10;;;17.80;21.50;;;;;;2256067;61;20401;-66
2023/01/19 07:43:06;0.00;0.00;0.62;0.00;0.00;0.62;4.60;3.50;;;17.80;21.50;;;;;;2255618;61;20362;-65
2023/01/19 07:45:55;0.00;0.00;0.62;0.00;0.00;0.62;3.40;2.67;;;17.80;21.50;;;;;;2256015;61;20354;-67
2023/01/19 07:48:43;0.00;0.00;0.62;0.00;0.00;0.62;4.13;3.70;;;17.80;21.50;;;;;;2255817;61;20365;-65
2023/01/19 07:51:30;0.00;0.00;0.62;0.00;0.00;0.62;3.87;2.80;;;17.80;21.50;;;;;;2255581;61;20357;-64
2023/01/19 07:54:17;0.00;0.00;0.62;0.00;0.00;0.62;3.87;2.77;;;17.70;21.50;;;;;;2255743;61;20429;-65
2023/01/19 07:57:03;0.00;0.00;0.62;0.00;0.00;0.62;3.60;3.00;;;17.70;21.60;;;;;;2256036;61;20373;-64
2023/01/19 07:59:50;0.00;0.00;0.62;0.00;0.00;0.62;3.80;3.13;;;17.70;21.60;;;;;;2256268;61;20366;-64
2023/01/19 08:02:36;0.00;0.00;0.62;0.00;0.00;0.62;4.63;3.33;;;17.70;21.70;;;;;;2256244;61;20511;-63
2023/01/19 08:05:22;0.00;0.00;0.62;0.00;0.00;0.62;3.83;2.70;;;17.70;21.60;;;;;;2255829;61;20405;-64
2023/01/19 08:08:10;0.00;0.00;0.62;0.00;0.00;0.62;3.63;2.67;;;17.70;21.60;;;;;;2256200;61;20376;-64
2023/01/19 08:10:55;0.00;0.00;0.62;0.00;0.00;0.62;4.10;3.10;;;17.70;21.70;;;;;;2255409;61;20369;-64
2023/01/19 08:13:39;0.00;0.00;0.62;0.00;0.00;0.62;7.13;4.23;;;17.70;21.70;;;;;;2255387;61;20517;-64
2023/01/19 08:16:26;0.00;0.00;0.62;0.00;0.00;0.62;3.63;2.67;;;17.70;21.70;;;;;;2255434;61;20365;-65
2023/01/19 08:19:11;0.00;0.00;0.62;0.00;0.00;0.62;3.73;2.90;;;17.60;21.60;;;;;;2255297;61;21221;-64
2023/01/19 08:21:57;0.00;0.00;0.62;0.00;0.00;0.62;4.20;2.90;;;17.70;21.70;;;;;;2257985;61;20394;-67
2023/01/19 08:24:42;0.00;0.00;0.62;0.00;0.00;0.62;6.80;3.33;;;17.70;21.70;;;;;;2255439;61;20377;-65
2023/01/19 08:27:27;0.00;0.00;0.62;0.00;0.00;0.62;3.40;2.87;;;17.70;21.70;;;;;;2255743;61;20394;-65
2023/01/19 08:30:12;0.00;0.00;0.62;0.00;0.00;0.62;3.90;3.47;;;17.70;21.80;;;;;;2256130;61;20485;-63
2023/01/19 08:33:06;0.00;0.00;0.62;0.00;0.00;0.62;3.37;2.80;;;17.70;21.80;;;;;;2255220;61;20440;-64
2023/01/19 08:35:53;0.00;0.00;0.62;0.00;0.00;0.62;5.27;2.83;;;17.60;21.70;;;;;;2255201;61;20882;-61
2023/01/19 08:38:43;0.00;0.00;0.62;0.00;0.00;0.62;4.10;2.30;;;17.60;21.80;;;;;;2255716;61;20366;-66
2023/01/19 08:41:28;0.00;0.00;0.62;0.00;0.00;0.62;4.17;3.13;;;17.70;22.30;;;;;;2255095;61;20382;-66
2023/01/19 08:44:13;0.00;0.00;0.62;0.00;0.00;0.62;3.20;2.77;;;17.60;21.70;;;;;;2254970;61;20458;-62
2023/01/19 08:46:58;0.00;0.00;0.62;0.00;0.00;0.62;3.30;2.90;;;17.60;21.60;;;;;;2255551;61;20361;-64
2023/01/19 08:49:45;0.00;0.00;0.62;0.00;0.00;0.62;5.23;3.30;;;17.60;21.70;;;;;;2256002;61;20462;-63
2023/01/19 08:52:29;0.00;0.00;0.62;0.00;0.00;0.62;4.47;2.60;;;17.60;21.70;;;;;;2255754;61;20462;-60
2023/01/19 08:55:14;0.00;0.00;0.62;0.00;0.00;0.62;4.40;2.53;;;17.60;21.70;;;;;;2255941;61;20461;-66
2023/01/19 08:58:00;0.00;0.00;0.62;0.00;0.00;0.62;3.70;2.87;;;17.60;21.80;;;;;;2256083;61;20362;-69
2023/01/19 09:00:45;0.00;0.00;0.62;0.00;0.00;0.62;3.00;2.40;;;17.50;21.70;;;;;;2255926;61;20362;-60
2023/01/19 09:03:30;0.00;0.00;0.62;0.00;0.00;0.62;4.23;2.40;;;17.60;21.80;;;;;;2256135;61;20357;-64
2023/01/19 09:06:18;0.00;0.00;0.62;0.00;0.00;0.62;3.60;2.10;;;17.60;21.90;;;;;;2256185;61;20365;-64
2023/01/19 09:09:02;0.00;0.00;0.62;0.00;0.00;0.62;2.80;2.07;;;17.60;22.00;;;;;;2255728;61;20362;-66
2023/01/19 09:11:47;0.00;0.00;0.62;0.00;0.00;0.62;2.53;1.80;;;17.70;22.10;;;;;;2255405;61;20459;-66
2023/01/19 09:14:32;0.00;0.00;0.62;0.00;0.00;0.62;2.70;1.63;;;17.70;22.10;;;;;;2254939;61;20834;-68
2023/01/19 09:17:17;0.00;0.00;0.62;0.00;0.00;0.62;2.93;1.60;;;17.80;22.20;;;;;;2256248;61;20470;-67
2023/01/19 09:20:04;0.00;0.00;0.62;0.00;0.00;0.62;2.20;1.47;;;17.80;22.30;;;;;;2256394;61;20771;-65
2023/01/19 09:22:51;0.00;0.00;0.62;0.00;0.00;0.62;2.50;1.70;;;17.90;22.30;;;;;;2256441;61;20365;-64
2023/01/19 09:25:36;0.00;0.00;0.62;0.00;0.00;0.62;1.87;1.20;;;17.90;22.40;;;;;;2256384;61;20988;-61
2023/01/19 09:28:21;0.00;0.00;0.62;0.00;0.00;0.62;2.50;1.87;;;18.00;22.50;;;;;;2256328;61;20365;-58
2023/01/19 09:31:07;0.00;0.00;0.62;0.00;0.00;0.62;3.00;1.80;;;18.00;22.50;;;;;;2256097;61;20365;-66
2023/01/19 09:33:52;0.00;0.00;0.62;0.00;0.00;0.62;2.10;1.43;;;18.10;22.70;;;;;;2256628;61;20441;-67
2023/01/19 09:36:38;0.00;0.00;0.62;0.00;0.00;0.62;1.90;1.60;;;18.10;22.70;;;;;;2256153;61;20412;-66
2023/01/19 09:39:25;0.00;0.00;0.62;0.00;0.00;0.62;2.57;1.40;;;18.20;22.80;;;;;;2258773;61;20757;-66
2023/01/19 09:42:22;0.00;0.00;0.62;0.00;0.00;0.62;4.13;1.60;;;18.20;22.80;;;;;;2256057;61;20362;-66
2023/01/19 09:45:16;0.00;0.00;0.62;0.00;0.00;0.62;2.40;1.43;;;18.20;22.80;;;;;;2255935;61;20829;-63
2023/01/19 09:48:12;0.00;0.00;0.62;0.00;0.00;0.62;2.17;1.43;;;18.30;22.90;;;;;;2256740;61;20362;-67
2023/01/19 09:51:01;0.00;0.00;0.62;0.00;0.00;0.62;3.20;1.73;;;18.30;22.80;;;;;;2256083;61;20382;-65
2023/01/19 09:53:58;0.00;0.00;0.62;0.00;0.00;0.62;2.63;1.60;;;18.40;22.90;;;;;;2255396;61;20449;-66
2023/01/19 09:56:47;0.00;0.00;0.62;0.00;0.00;0.62;2.00;1.60;;;18.40;22.90;;;;;;2256201;61;20370;-66
2023/01/19 09:59:32;0.00;0.00;0.62;0.00;0.00;0.62;1.83;1.17;;;18.40;23.00;;;;;;2255672;61;20787;-61
2023/01/19 10:02:29;0.00;0.00;0.62;0.00;0.00;0.62;1.87;1.27;;;18.50;23.00;;;;;;2258633;61;20377;-63
2023/01/19 10:05:28;0.00;0.00;0.62;0.00;0.00;0.62;1.90;1.10;;;18.50;23.00;;;;;;2255716;61;20513;-62
2023/01/19 10:08:27;0.00;0.00;0.62;0.00;0.00;0.62;1.50;1.20;;;18.60;23.00;;;;;;2255929;61;20386;-62
2023/01/19 10:11:25;0.00;0.00;0.62;0.00;0.00;0.62;2.00;1.30;;;18.60;22.90;;;;;;2256105;61;20891;-66
2023/01/19 10:14:19;0.00;0.00;0.62;0.00;0.00;0.62;1.90;1.30;;;18.60;22.90;;;;;;2255809;61;20429;-66
2023/01/19 10:17:18;0.00;0.00;0.62;0.00;0.00;0.62;1.90;1.30;;;18.70;23.00;;;;;;2256619;61;20419;-63
2023/01/19 10:20:14;0.00;0.00;0.62;0.00;0.00;0.62;1.60;1.07;;;18.70;23.00;;;;;;2255863;61;20361;-62
2023/01/19 10:23:00;0.00;0.00;0.62;0.00;0.00;0.62;2.10;1.10;;;18.70;23.00;;;;;;2255935;61;20401;-65
2023/01/19 10:25:46;0.00;0.00;0.62;0.00;0.00;0.62;2.00;1.23;;;18.80;23.10;;;;;;2256560;61;20381;-65
2023/01/19 10:28:31;0.00;0.00;0.62;0.00;0.00;0.62;2.07;1.33;;;18.80;23.20;;;;;;2256389;61;20973;-64
2023/01/19 10:31:21;0.00;0.00;0.62;0.00;0.00;0.62;1.70;1.27;;;18.80;23.20;;;;;;2256069;61;20782;-65
2023/01/19 10:34:08;0.00;0.00;0.62;0.00;0.00;0.62;1.63;1.00;;;18.90;23.20;;;;;;2256029;61;20402;-65
2023/01/19 10:37:01;0.00;0.00;0.62;0.00;0.00;0.62;1.93;1.17;;;18.90;23.30;;;;;;2255818;61;20357;-65
2023/01/19 10:39:52;0.00;0.00;0.62;0.00;0.00;0.62;3.03;1.10;;;18.90;23.30;;;;;;2256477;61;20496;-68
2023/01/19 10:42:40;0.00;0.00;0.62;0.00;0.00;0.62;1.87;1.10;;;18.90;23.30;;;;;;2256015;61;20874;-66
2023/01/19 10:45:28;0.00;0.00;0.62;0.00;0.00;0.62;2.10;1.13;;;19.00;23.30;;;;;;2255058;61;20393;-66
2023/01/19 10:48:14;0.00;0.00;0.62;0.00;0.00;0.62;1.97;1.10;;;19.00;23.30;;;;;;2256290;61;20764;-60
2023/01/19 10:51:02;0.00;0.00;0.62;0.00;0.00;0.62;1.70;1.00;;;19.00;23.30;;;;;;2255839;61;20928;-63
2023/01/19 10:53:57;0.00;0.00;0.62;0.00;0.00;0.62;2.00;1.60;;;19.10;23.30;;;;;;2256458;61;20396;-66
2023/01/19 10:56:49;0.00;0.00;0.62;0.00;0.00;0.62;2.57;1.03;;;19.10;23.30;;;;;;2256280;61;20358;-67
2023/01/19 10:59:37;0.00;0.00;0.62;0.00;0.00;0.62;3.30;1.27;;;19.10;23.30;;;;;;2255530;61;20431;-65
2023/01/19 11:02:26;0.00;0.00;0.62;0.00;0.00;0.62;2.73;1.30;;;19.20;23.40;;;;;;2256558;61;20911;-66
2023/01/19 11:05:25;0.00;0.00;0.62;0.00;0.00;0.62;2.00;1.17;;;19.20;23.40;;;;;;2255006;61;20701;-66
2023/01/19 11:08:22;0.00;0.00;0.62;0.00;0.00;0.62;1.70;1.20;;;19.20;23.40;;;;;;2255767;61;20845;-67